Terminal Aerodrome Forecast
Issued by NWS

Home | Current Version | Previous Version | Text Only | Print | Product List | Glossary On
Versions: 1 2 3 4 5 6 7 8 9 10 11 12 13 14 15
000
FTAK31 PAJN 181730
TAFAWG
TAF
PAWG 181730Z 1818/1918 15009KT 6SM -SHRA SCT010 BKN035 OVC040
      WS020/21025KT
      TEMPO 1818/1821 4SM RA SCT010 BKN025 OVC040
     FM190900 16012KT 4SM -RA BR FEW006 SCT010 OVC025
      AMD LTD TO CLD VIS AND WIND 1906/1915=

USA.gov is the U.S. government's official web portal to all federal, state and local government web resources and services.